Time;durP1;ratioP1;P1;durP2;ratioP2;P2;SDS_P1;SDS_P2;PMS_P1;PMS_P2;Temp;Humidity;BMP_temperature;BMP_pressure;BME280_temperature;BME280_humidity;BME280_pressure;Samples;Min_cycle;Max_cycle;Signal;HPM_P1;HPM_P2
2022/04/25 00:00:56;;;;;;;3.67;1.42;;;9.50;87.30;;;;;;5033695;28;20029;-77
2022/04/25 00:03:22;;;;;;;2.55;1.58;;;9.50;87.40;;;;;;5033824;28;20024;-79
2022/04/25 00:05:47;;;;;;;2.20;1.60;;;9.50;87.40;;;;;;5033652;28;20101;-78
2022/04/25 00:08:13;;;;;;;1.75;1.40;;;9.50;87.50;;;;;;5033706;28;20053;-78
2022/04/25 00:10:39;;;;;;;1.40;1.30;;;9.50;87.60;;;;;;5033641;28;20650;-79
2022/04/25 00:13:04;;;;;;;3.15;2.15;;;9.60;87.70;;;;;;5033422;28;20033;-78
2022/04/25 00:15:30;;;;;;;2.50;1.80;;;9.60;87.40;;;;;;5033232;28;20025;-77
2022/04/25 00:17:56;;;;;;;2.83;1.85;;;9.50;86.90;;;;;;5033373;28;20337;-78
2022/04/25 00:20:21;;;;;;;1.77;1.60;;;9.60;87.00;;;;;;5033340;28;20071;-78
2022/04/25 00:22:47;;;;;;;1.80;1.50;;;9.60;87.60;;;;;;5033363;28;20095;-77
2022/04/25 00:25:13;;;;;;;1.40;1.30;;;9.60;87.50;;;;;;5033338;28;20036;-78
2022/04/25 00:27:39;;;;;;;1.88;1.63;;;9.60;87.50;;;;;;5033230;28;20052;-78
2022/04/25 00:30:06;;;;;;;1.70;1.45;;;9.60;87.70;;;;;;5033283;28;20479;-78
2022/04/25 00:32:31;;;;;;;2.10;1.80;;;9.60;87.70;;;;;;5032898;28;20064;-79
2022/04/25 00:34:57;;;;;;;2.65;1.90;;;9.50;87.90;;;;;;5033272;28;20126;-78
2022/04/25 00:37:22;;;;;;;4.30;3.10;;;9.60;88.00;;;;;;5032838;28;20103;-78
2022/04/25 00:39:48;;;;;;;4.93;3.53;;;9.60;88.20;;;;;;5032617;28;20029;-77
2022/04/25 00:42:14;;;;;;;5.05;3.60;;;9.50;87.90;;;;;;5033133;28;20372;-77
2022/04/25 00:44:41;;;;;;;3.10;2.80;;;9.50;87.20;;;;;;5033004;28;20037;-77
2022/04/25 00:47:08;;;;;;;5.35;3.10;;;9.50;87.30;;;;;;5033052;28;20051;-78
2022/04/25 00:49:34;;;;;;;5.32;3.28;;;9.50;87.40;;;;;;5032878;28;20026;-77
2022/04/25 00:51:59;;;;;;;4.38;3.13;;;9.50;87.40;;;;;;5031752;28;20030;-78
2022/04/25 00:54:25;;;;;;;5.53;3.95;;;9.50;87.30;;;;;;5032939;28;20029;-79
2022/04/25 00:56:50;;;;;;;4.38;3.30;;;9.40;86.90;;;;;;5032824;28;20025;-78
2022/04/25 00:59:18;;;;;;;4.88;3.95;;;9.50;87.10;;;;;;5032888;28;20530;-78
2022/04/25 01:01:45;;;;;;;6.28;3.65;;;9.40;86.90;;;;;;5032773;28;20032;-78
2022/04/25 01:04:11;;;;;;;5.75;3.80;;;9.50;87.20;;;;;;5032758;28;20480;-78
2022/04/25 01:06:36;;;;;;;5.55;4.03;;;9.50;87.30;;;;;;5032807;28;20052;-77
2022/04/25 01:09:03;;;;;;;5.63;4.10;;;9.40;87.50;;;;;;5032715;28;20037;-77
2022/04/25 01:11:29;;;;;;;4.47;4.05;;;9.40;87.50;;;;;;5032711;28;20040;-77
2022/04/25 01:13:54;;;;;;;6.55;4.75;;;9.40;87.50;;;;;;5032748;28;20029;-78
2022/04/25 01:16:20;;;;;;;5.53;4.60;;;9.40;87.50;;;;;;5032696;28;20108;-77
2022/04/25 01:18:46;;;;;;;5.93;4.13;;;9.30;87.70;;;;;;5032644;28;20029;-78
2022/04/25 01:21:14;;;;;;;4.40;3.38;;;9.30;88.00;;;;;;5031340;28;20399;-78
2022/04/25 01:29:09;;;;;;;4.22;3.60;;;9.20;88.60;;;;;;5032655;28;20033;-78
2022/04/25 01:31:35;;;;;;;3.80;3.40;;;9.20;88.50;;;;;;5032475;28;20033;-78
2022/04/25 01:34:00;;;;;;;4.50;3.38;;;9.20;88.50;;;;;;5032587;28;20147;-78
2022/04/25 01:36:26;;;;;;;4.15;3.60;;;9.10;88.60;;;;;;5032257;28;20103;-77
2022/04/25 01:38:52;;;;;;;4.03;3.40;;;9.10;87.80;;;;;;5031329;28;20033;-78
2022/04/25 01:41:18;;;;;;;3.80;3.22;;;9.10;88.00;;;;;;5032570;28;20022;-78
2022/04/25 01:43:44;;;;;;;6.28;3.33;;;9.10;87.90;;;;;;5032442;28;20514;-78
2022/04/25 01:46:10;;;;;;;3.22;2.80;;;9.10;87.90;;;;;;5032451;28;20018;-78
2022/04/25 01:48:35;;;;;;;3.97;3.03;;;9.20;88.10;;;;;;5032395;28;20112;-78
2022/04/25 01:51:01;;;;;;;3.92;3.08;;;9.10;88.20;;;;;;5032457;28;20038;-78
2022/04/25 01:53:27;;;;;;;4.13;3.13;;;9.20;88.20;;;;;;5036233;28;20071;-78
2022/04/25 01:55:53;;;;;;;4.13;3.40;;;9.20;88.10;;;;;;5036125;28;20369;-78
2022/04/25 01:58:19;;;;;;;5.85;3.75;;;9.20;88.10;;;;;;5036003;28;20028;-78
2022/04/25 02:00:45;;;;;;;4.10;3.60;;;9.20;88.10;;;;;;5035988;28;20056;-78
2022/04/25 02:03:11;;;;;;;4.95;3.65;;;9.20;88.10;;;;;;5036029;28;20022;-78
2022/04/25 02:05:37;;;;;;;4.68;3.80;;;9.20;88.20;;;;;;5035902;28;20021;-78
2022/04/25 02:08:03;;;;;;;4.55;3.72;;;9.30;88.20;;;;;;5035786;28;20018;-79
2022/04/25 02:10:29;;;;;;;4.57;3.67;;;9.30;88.20;;;;;;5035817;28;20091;-77
2022/04/25 02:12:55;;;;;;;4.55;3.35;;;9.20;87.80;;;;;;5035778;28;20049;-77
2022/04/25 02:15:20;;;;;;;4.82;3.88;;;9.30;87.50;;;;;;5035705;28;20082;-78
2022/04/25 02:17:46;;;;;;;4.13;3.70;;;9.20;87.40;;;;;;5035773;28;20030;-78
2022/04/25 02:20:13;;;;;;;4.85;4.13;;;9.20;87.40;;;;;;5035696;28;20022;-78
2022/04/25 02:22:39;;;;;;;5.40;4.20;;;9.20;87.10;;;;;;5035779;28;20108;-77
2022/04/25 02:25:06;;;;;;;6.32;4.75;;;9.20;87.10;;;;;;5034317;28;20382;-77
2022/04/25 02:27:32;;;;;;;6.28;4.55;;;9.20;87.50;;;;;;5035947;28;20026;-78
2022/04/25 02:29:58;;;;;;;5.53;4.20;;;9.20;87.70;;;;;;5036037;28;20073;-79
2022/04/25 02:32:24;;;;;;;4.93;4.15;;;9.20;87.80;;;;;;5036215;28;20070;-78
2022/04/25 02:34:53;;;;;;;5.72;4.53;;;9.10;88.00;;;;;;5035913;28;20444;-78
2022/04/25 02:37:20;;;;;;;6.10;4.60;;;9.10;88.30;;;;;;5036028;28;20107;-77
2022/04/25 02:39:45;;;;;;;6.68;5.50;;;9.10;88.30;;;;;;5036062;28;20022;-77
2022/04/25 02:42:11;;;;;;;6.75;5.53;;;9.10;88.00;;;;;;5036114;28;20458;-78
2022/04/25 02:44:36;;;;;;;7.07;5.07;;;9.10;87.70;;;;;;5038462;28;20025;-78
2022/04/25 02:47:02;;;;;;;6.15;4.68;;;9.10;87.70;;;;;;5036442;28;20033;-78
2022/04/25 02:49:28;;;;;;;5.10;4.43;;;9.20;88.60;;;;;;5034987;28;20487;-77
2022/04/25 02:51:53;;;;;;;6.05;4.57;;;9.20;87.80;;;;;;5035104;28;20037;-78
2022/04/25 02:54:19;;;;;;;8.77;4.97;;;9.20;87.80;;;;;;5033652;28;20108;-77
2022/04/25 02:56:44;;;;;;;12.13;4.90;;;9.20;87.80;;;;;;5034926;28;20110;-78
2022/04/25 02:59:10;;;;;;;8.45;5.00;;;9.20;87.80;;;;;;5034874;28;20029;-78
2022/04/25 03:01:35;;;;;;;12.10;7.35;;;9.20;87.60;;;;;;5034771;28;20049;-79
2022/04/25 03:04:01;;;;;;;7.75;5.80;;;9.20;88.10;;;;;;5034471;28;20060;-79
2022/04/25 03:06:27;;;;;;;8.15;5.85;;;9.20;88.30;;;;;;5034810;28;20083;-78
2022/04/25 03:08:53;;;;;;;7.03;5.55;;;9.10;88.40;;;;;;5034676;28;20033;-77
2022/04/25 03:11:18;;;;;;;7.72;5.80;;;9.10;88.50;;;;;;5033207;28;20040;-77
2022/04/25 03:13:45;;;;;;;9.73;7.18;;;9.10;88.60;;;;;;5034723;28;20109;-77
2022/04/25 03:16:11;;;;;;;12.75;8.40;;;9.10;88.50;;;;;;5034685;28;20049;-77
2022/04/25 03:18:37;;;;;;;9.88;7.47;;;9.10;88.40;;;;;;5034603;28;20064;-77
2022/04/25 03:21:03;;;;;;;9.73;6.60;;;9.10;88.30;;;;;;5034531;28;20025;-77
2022/04/25 03:23:29;;;;;;;9.50;7.15;;;9.00;88.40;;;;;;5034322;28;20508;-77
2022/04/25 03:25:55;;;;;;;9.65;7.45;;;9.00;88.20;;;;;;5034352;28;20059;-77
2022/04/25 03:28:21;;;;;;;9.43;7.20;;;9.00;88.20;;;;;;5034368;28;20044;-77
2022/04/25 03:30:47;;;;;;;9.23;7.15;;;9.00;88.20;;;;;;5034365;28;20045;-78
2022/04/25 03:33:12;;;;;;;10.68;7.28;;;9.00;88.10;;;;;;5034295;28;20026;-77
2022/04/25 03:35:39;;;;;;;9.55;7.45;;;9.00;88.00;;;;;;5033928;28;20025;-77
2022/04/25 03:38:06;;;;;;;8.98;6.65;;;9.10;87.80;;;;;;5034283;28;20038;-77
2022/04/25 03:40:32;;;;;;;9.38;7.35;;;9.10;87.80;;;;;;5034258;28;20071;-76
2022/04/25 03:42:58;;;;;;;9.48;7.32;;;9.10;87.80;;;;;;5032627;28;20029;-77
2022/04/25 03:45:23;;;;;;;10.27;7.60;;;9.20;87.60;;;;;;5034168;28;20033;-76
2022/04/25 03:47:49;;;;;;;9.48;6.70;;;9.20;87.50;;;;;;5032671;28;20053;-77
2022/04/25 03:50:16;;;;;;;8.80;6.72;;;9.20;87.50;;;;;;5034108;28;20526;-77
2022/04/25 03:52:43;;;;;;;7.63;5.90;;;9.30;87.60;;;;;;5033648;28;20029;-77
2022/04/25 03:57:58;;;;;;;8.40;6.03;;;9.30;88.00;;;;;;5033914;28;20041;-76
2022/04/25 04:00:24;;;;;;;7.72;5.70;;;9.30;88.10;;;;;;5033744;28;20197;-77
2022/04/25 04:02:50;;;;;;;6.85;5.82;;;9.30;88.20;;;;;;5033173;28;20017;-77
2022/04/25 04:05:15;;;;;;;9.50;7.28;;;9.20;88.20;;;;;;5033501;28;20117;-77
2022/04/25 04:07:41;;;;;;;6.90;5.55;;;9.20;88.30;;;;;;5033622;28;20022;-77
2022/04/25 04:10:08;;;;;;;7.63;6.60;;;9.20;88.30;;;;;;5032151;28;20036;-77
2022/04/25 04:12:37;;;;;;;7.13;5.97;;;9.30;88.30;;;;;;5033412;28;20052;-77
2022/04/25 04:15:07;;;;;;;13.55;7.70;;;9.30;88.30;;;;;;5032795;28;20040;-77
2022/04/25 04:17:34;;;;;;;8.50;7.03;;;9.30;88.10;;;;;;5033496;28;20387;-77
2022/04/25 04:20:02;;;;;;;10.77;7.38;;;9.30;87.80;;;;;;5032051;28;20416;-77
2022/04/25 04:22:30;;;;;;;10.10;8.00;;;9.30;87.90;;;;;;5033420;28;20071;-77
2022/04/25 04:25:04;;;;;;;10.82;8.73;;;9.30;88.10;;;;;;5033234;28;20032;-77
2022/04/25 04:27:32;;;;;;;9.95;7.40;;;9.30;88.20;;;;;;5033433;28;20097;-77
2022/04/25 04:30:00;;;;;;;8.88;7.03;;;9.30;88.50;;;;;;5033160;28;20043;-78
2022/04/25 04:32:29;;;;;;;8.80;6.80;;;9.20;88.40;;;;;;5032995;28;20411;-78
2022/04/25 04:34:55;;;;;;;10.77;7.47;;;9.20;88.60;;;;;;5033194;28;20519;-78
2022/04/25 04:37:21;;;;;;;9.20;7.38;;;9.20;88.70;;;;;;5033005;28;20057;-77
2022/04/25 04:39:46;;;;;;;9.93;7.85;;;9.30;88.80;;;;;;5033078;28;20021;-77
2022/04/25 04:42:12;;;;;;;8.80;7.20;;;9.30;88.80;;;;;;5032977;28;20501;-77
2022/04/25 04:44:37;;;;;;;9.05;6.90;;;9.20;88.80;;;;;;5031629;28;20028;-77
2022/04/25 04:47:04;;;;;;;11.23;7.75;;;9.30;88.70;;;;;;5032778;28;20034;-77
2022/04/25 04:49:29;;;;;;;11.27;8.52;;;9.30;88.70;;;;;;5032727;28;20048;-77
2022/04/25 04:51:55;;;;;;;9.23;7.13;;;9.30;88.70;;;;;;5032765;28;20032;-77
2022/04/25 04:54:20;;;;;;;10.00;7.22;;;9.30;88.70;;;;;;5032777;28;20025;-77
2022/04/25 04:56:46;;;;;;;10.00;7.65;;;9.30;88.70;;;;;;5032701;28;20033;-77
2022/04/25 04:59:11;;;;;;;10.15;7.80;;;9.30;88.60;;;;;;5032695;28;20022;-77
2022/04/25 05:01:38;;;;;;;9.23;7.32;;;9.40;88.40;;;;;;5032587;28;20025;-78
2022/04/25 05:04:04;;;;;;;9.15;7.38;;;9.40;88.40;;;;;;5032779;28;20022;-78
2022/04/25 05:06:30;;;;;;;9.65;7.30;;;9.40;88.30;;;;;;5032684;28;20509;-80
2022/04/25 05:08:55;;;;;;;8.65;6.72;;;9.40;88.30;;;;;;5032723;28;20029;-79
2022/04/25 05:11:21;;;;;;;10.43;7.32;;;9.40;88.10;;;;;;5032624;28;20037;-77
2022/04/25 05:13:48;;;;;;;10.50;7.63;;;9.40;88.10;;;;;;5032609;28;20018;-79
2022/04/25 05:16:13;;;;;;;10.15;8.13;;;9.40;88.30;;;;;;5032233;28;20070;-78
2022/04/25 05:18:39;;;;;;;14.40;9.77;;;9.40;88.40;;;;;;5031539;28;20042;-78
2022/04/25 05:21:05;;;;;;;12.07;8.95;;;9.40;88.10;;;;;;5032264;28;20522;-79
2022/04/25 05:23:31;;;;;;;18.90;9.55;;;9.40;87.90;;;;;;5032346;28;20499;-79
2022/04/25 05:25:57;;;;;;;10.85;7.90;;;9.40;87.90;;;;;;5033857;28;20537;-78
2022/04/25 05:28:22;;;;;;;10.73;8.73;;;9.40;87.70;;;;;;5035917;28;20053;-79
2022/04/25 05:30:49;;;;;;;12.07;8.32;;;9.50;88.00;;;;;;5035641;28;20044;-79
2022/04/25 05:33:17;;;;;;;12.68;9.88;;;9.50;88.10;;;;;;5035577;28;20543;-79
2022/04/25 05:35:44;;;;;;;13.00;8.88;;;9.60;87.80;;;;;;5035933;28;20052;-79
2022/04/25 05:38:10;;;;;;;12.38;8.45;;;9.60;87.70;;;;;;5036289;28;20117;-79
2022/04/25 05:40:36;;;;;;;14.18;9.68;;;9.60;87.60;;;;;;5037497;28;20030;-77
2022/04/25 05:43:06;;;;;;;18.48;11.93;;;9.70;87.40;;;;;;5036749;28;20024;-77
2022/04/25 05:45:32;;;;;;;14.40;10.52;;;9.60;87.10;;;;;;5036677;28;20017;-77
2022/04/25 05:47:58;;;;;;;13.35;10.88;;;9.70;87.20;;;;;;5036588;28;20108;-78
2022/04/25 05:53:13;;;;;;;16.25;11.55;;;10.00;86.90;;;;;;5037275;28;20080;-76
2022/04/25 05:55:39;;;;;;;18.42;13.40;;;10.10;86.10;;;;;;5036866;28;20083;-76
2022/04/25 05:58:20;;;;;;;17.42;12.65;;;10.20;85.70;;;;;;5035385;28;20079;-79
2022/04/25 06:00:46;;;;;;;15.45;11.27;;;10.40;85.50;;;;;;5036476;28;20052;-79
2022/04/25 06:03:11;;;;;;;15.27;9.73;;;10.40;85.30;;;;;;5036421;28;20480;-78
2022/04/25 06:05:37;;;;;;;11.98;9.07;;;10.40;84.80;;;;;;5036810;28;20044;-79
2022/04/25 06:08:03;;;;;;;11.25;9.02;;;10.50;84.70;;;;;;5036183;28;20022;-79
2022/04/25 06:10:29;;;;;;;10.45;8.13;;;10.50;84.10;;;;;;5035139;28;20038;-81
2022/04/25 06:12:55;;;;;;;13.52;7.13;;;10.50;84.00;;;;;;5037351;28;20052;-77
2022/04/25 06:15:24;;;;;;;9.52;5.85;;;10.80;86.20;;;;;;5036658;28;20036;-76
2022/04/25 06:17:51;;;;;;;10.45;7.63;;;11.10;84.80;;;;;;5037047;28;20379;-76
2022/04/25 06:20:17;;;;;;;8.70;6.88;;;11.30;82.70;;;;;;5036951;28;20021;-77
2022/04/25 06:22:58;;;;;;;8.10;6.88;;;11.60;81.60;;;;;;5037918;28;20064;-77
2022/04/25 06:25:25;;;;;;;27.65;8.77;;;11.70;80.70;;;;;;5035444;28;20040;-77
2022/04/25 06:27:50;;;;;;;11.63;7.90;;;11.90;80.70;;;;;;5035367;28;20033;-78
2022/04/25 06:30:16;;;;;;;9.20;7.00;;;11.90;79.60;;;;;;5035104;28;20037;-78
2022/04/25 06:32:42;;;;;;;8.38;6.97;;;11.90;80.40;;;;;;5035153;28;20516;-78
2022/04/25 06:35:08;;;;;;;8.32;6.97;;;11.80;79.70;;;;;;5035087;28;20018;-79
2022/04/25 06:37:34;;;;;;;8.32;6.68;;;11.90;80.00;;;;;;5035899;28;20068;-78
2022/04/25 06:39:59;;;;;;;8.15;6.40;;;11.90;80.00;;;;;;5036855;28;20026;-79
2022/04/25 06:42:25;;;;;;;7.28;5.95;;;11.90;79.50;;;;;;5035167;28;20026;-78
2022/04/25 06:44:51;;;;;;;8.40;6.15;;;11.90;79.40;;;;;;5036254;28;20372;-78
2022/04/25 06:47:17;;;;;;;7.07;5.68;;;11.90;79.10;;;;;;5036269;28;20108;-78
2022/04/25 06:49:42;;;;;;;5.68;5.07;;;12.00;78.40;;;;;;5036051;28;20032;-78
2022/04/25 06:52:09;;;;;;;7.00;5.97;;;12.00;78.30;;;;;;5036763;28;20034;-79
2022/04/25 06:54:35;;;;;;;6.78;6.07;;;12.10;78.40;;;;;;5035658;28;20109;-79
2022/04/25 06:57:02;;;;;;;6.47;5.63;;;12.10;76.50;;;;;;5035358;28;20032;-77
2022/04/25 06:59:27;;;;;;;6.75;5.53;;;12.20;76.10;;;;;;5035839;28;20479;-78
2022/04/25 07:01:53;;;;;;;10.38;7.32;;;12.20;75.90;;;;;;5035987;28;20095;-76
2022/04/25 07:04:19;;;;;;;8.80;7.07;;;12.40;76.00;;;;;;5035863;28;20360;-78
2022/04/25 07:06:46;;;;;;;7.57;5.88;;;12.50;75.80;;;;;;5035043;28;20047;-76
2022/04/25 07:09:13;;;;;;;6.57;5.78;;;12.60;75.00;;;;;;5034868;28;20112;-77
2022/04/25 07:11:41;;;;;;;8.65;6.30;;;12.60;74.30;;;;;;5034123;28;20037;-78
2022/04/25 07:14:07;;;;;;;6.75;5.95;;;12.70;72.90;;;;;;5038123;28;20017;-77
2022/04/25 07:16:32;;;;;;;6.13;5.50;;;12.80;72.30;;;;;;5040320;28;20021;-77
2022/04/25 07:18:58;;;;;;;5.75;4.97;;;12.80;71.80;;;;;;5036010;28;20072;-77
2022/04/25 07:29:37;;;;;;;8.85;5.97;;;13.40;68.90;;;;;;5034580;28;20056;-79
2022/04/25 07:32:03;;;;;;;7.00;6.07;;;13.50;69.50;;;;;;5034426;28;20399;-78
2022/04/25 07:34:29;;;;;;;5.22;4.72;;;13.70;69.60;;;;;;5034285;28;20096;-77
2022/04/25 07:36:55;;;;;;;9.48;6.10;;;13.80;69.30;;;;;;5033746;28;20053;-78
2022/04/25 07:39:22;;;;;;;6.43;5.15;;;13.90;68.30;;;;;;5034521;28;20424;-79
2022/04/25 07:41:49;;;;;;;6.65;5.95;;;14.10;68.20;;;;;;5033170;28;20041;-76
2022/04/25 07:44:15;;;;;;;6.22;5.63;;;14.20;67.70;;;;;;5032607;28;20033;-77
2022/04/25 07:46:41;;;;;;;7.20;5.90;;;14.20;67.20;;;;;;5032346;28;20037;-76
2022/04/25 07:49:10;;;;;;;7.90;6.15;;;14.20;67.60;;;;;;5031510;28;20052;-78
2022/04/25 07:51:37;;;;;;;7.68;5.78;;;14.10;67.90;;;;;;5032737;28;20120;-76
2022/04/25 07:54:04;;;;;;;8.18;6.45;;;14.00;67.80;;;;;;5033820;28;20021;-76
2022/04/25 07:56:32;;;;;;;7.68;5.75;;;14.00;68.10;;;;;;5033577;28;20113;-78
2022/04/25 07:58:58;;;;;;;7.05;5.78;;;14.00;68.10;;;;;;5033669;28;20028;-78
2022/04/25 08:01:24;;;;;;;8.05;6.50;;;14.00;68.00;;;;;;5033687;28;20104;-77
2022/04/25 08:03:49;;;;;;;10.85;6.65;;;13.90;67.40;;;;;;5033781;28;20025;-77
2022/04/25 08:06:15;;;;;;;8.65;6.97;;;13.80;67.30;;;;;;5033515;28;20025;-78
2022/04/25 08:08:42;;;;;;;12.65;8.15;;;13.70;67.70;;;;;;5033594;28;20029;-77
2022/04/25 08:11:07;;;;;;;8.50;6.60;;;13.60;68.30;;;;;;5033300;28;20036;-77
2022/04/25 08:19:02;;;;;;;10.25;7.22;;;13.40;66.40;;;;;;5033617;28;20095;-77
2022/04/25 08:21:27;;;;;;;9.00;6.97;;;13.40;66.00;;;;;;5033265;28;20467;-78
2022/04/25 08:23:53;;;;;;;7.57;6.05;;;13.40;65.60;;;;;;5033348;28;20058;-79
2022/04/25 08:26:19;;;;;;;10.02;7.70;;;13.40;65.70;;;;;;5033240;28;20018;-79
2022/04/25 08:28:44;;;;;;;8.40;7.18;;;13.50;66.30;;;;;;5033005;28;20075;-79
2022/04/25 08:31:10;;;;;;;8.15;6.88;;;13.60;66.90;;;;;;5033003;28;20029;-80
2022/04/25 08:33:36;;;;;;;6.95;6.20;;;13.70;67.00;;;;;;5033257;28;20461;-79
2022/04/25 08:36:03;;;;;;;9.02;6.55;;;13.90;67.00;;;;;;5033054;28;20041;-79
2022/04/25 08:38:28;;;;;;;7.63;6.18;;;14.10;66.70;;;;;;5041510;28;20022;-79
2022/04/25 08:40:55;;;;;;;9.05;7.57;;;14.30;66.70;;;;;;5038462;28;20061;-79
2022/04/25 08:43:22;;;;;;;9.15;7.15;;;14.50;65.30;;;;;;5033242;28;20428;-78
2022/04/25 08:45:48;;;;;;;8.05;6.93;;;14.40;62.40;;;;;;5026548;28;20424;-79
2022/04/25 08:48:15;;;;;;;9.38;7.88;;;14.40;61.00;;;;;;5032550;28;20064;-78
2022/04/25 08:50:41;;;;;;;8.32;7.18;;;14.30;61.60;;;;;;5032732;28;20022;-78
2022/04/25 08:53:09;;;;;;;8.43;7.50;;;14.30;62.40;;;;;;5032903;28;20112;-78
2022/04/25 08:55:35;;;;;;;10.10;7.72;;;14.30;62.20;;;;;;5032740;28;20056;-78
2022/04/25 08:58:02;;;;;;;8.65;7.60;;;14.20;61.40;;;;;;5033048;28;20060;-78
2022/04/25 09:00:28;;;;;;;11.48;6.78;;;14.20;62.40;;;;;;5032372;28;20506;-78
2022/04/25 09:02:54;;;;;;;8.60;7.45;;;14.30;63.40;;;;;;5032684;28;20021;-78
2022/04/25 09:05:21;;;;;;;8.82;7.88;;;14.30;63.90;;;;;;5032859;28;20025;-79
2022/04/25 09:07:47;;;;;;;9.27;8.25;;;14.40;63.40;;;;;;5032640;28;20387;-77
2022/04/25 09:10:17;;;;;;;8.55;7.40;;;14.50;62.50;;;;;;5032419;28;20037;-77
2022/04/25 09:12:46;;;;;;;9.05;7.55;;;14.50;61.60;;;;;;5032770;28;20392;-77
2022/04/25 09:15:12;;;;;;;8.93;7.22;;;14.60;61.30;;;;;;5032434;28;20028;-78
2022/04/25 09:17:38;;;;;;;8.85;6.38;;;14.80;61.30;;;;;;5032538;28;20021;-76
2022/04/25 09:20:06;;;;;;;7.88;7.00;;;15.00;62.30;;;;;;5032499;28;20026;-79
2022/04/25 09:22:39;;;;;;;9.73;8.48;;;15.30;62.70;;;;;;5032578;28;20026;-76
2022/04/25 09:25:07;;;;;;;12.10;8.57;;;15.50;61.70;;;;;;5032634;28;20025;-79
2022/04/25 09:27:34;;;;;;;8.05;7.13;;;15.40;58.70;;;;;;5032432;28;20021;-77
2022/04/25 09:30:18;;;;;;;8.57;7.47;;;15.30;58.40;;;;;;5032492;28;20033;-77
2022/04/25 09:32:50;;;;;;;10.63;7.60;;;15.20;59.30;;;;;;5032126;28;20017;-76
2022/04/25 09:35:27;;;;;;;10.50;6.75;;;15.10;60.00;;;;;;5031844;28;20413;-74
2022/04/25 09:37:53;;;;;;;9.30;7.57;;;15.10;60.70;;;;;;5030383;28;20087;-76
2022/04/25 09:40:20;;;;;;;7.82;7.03;;;15.00;60.10;;;;;;5032177;28;20434;-80
2022/04/25 09:42:47;;;;;;;8.52;7.15;;;15.00;60.20;;;;;;5031963;28;20014;-79
2022/04/25 09:45:15;;;;;;;9.63;8.48;;;15.00;60.40;;;;;;5030480;28;20025;-76
2022/04/25 09:47:41;;;;;;;9.10;7.10;;;15.00;60.50;;;;;;5031772;28;20017;-76
2022/04/25 09:50:12;;;;;;;11.13;7.57;;;15.00;60.30;;;;;;5032336;28;20476;-76
2022/04/25 09:52:59;;;;;;;8.07;7.03;;;15.10;60.20;;;;;;5032279;28;20029;-75
2022/04/25 09:55:31;;;;;;;10.32;7.57;;;15.20;59.70;;;;;;5031919;28;20506;-74
2022/04/25 09:57:56;;;;;;;10.32;6.82;;;15.50;59.60;;;;;;5031470;28;20032;-77
2022/04/25 10:00:29;;;;;;;8.70;6.68;;;15.90;59.40;;;;;;5031795;28;20029;-75
2022/04/25 10:02:55;;;;;;;9.15;7.30;;;16.20;58.70;;;;;;5030803;28;20044;-75
2022/04/25 10:05:21;;;;;;;8.63;7.00;;;16.10;58.50;;;;;;5031406;28;20480;-75
2022/04/25 10:07:47;;;;;;;10.35;7.15;;;16.00;58.20;;;;;;5031561;28;20030;-77
2022/04/25 10:10:13;;;;;;;9.73;6.65;;;15.90;58.30;;;;;;5030867;28;20033;-76
2022/04/25 10:12:39;;;;;;;7.78;6.68;;;15.80;58.00;;;;;;5032391;28;20018;-75
2022/04/25 10:15:07;;;;;;;8.68;6.85;;;15.70;57.80;;;;;;5035261;28;20029;-76
2022/04/25 10:17:38;;;;;;;7.82;6.28;;;15.50;57.40;;;;;;5034870;28;20025;-77
2022/04/25 10:20:04;;;;;;;8.75;7.15;;;15.30;57.60;;;;;;5035076;28;20071;-75
2022/04/25 10:22:31;;;;;;;9.50;7.45;;;15.20;57.80;;;;;;5035305;28;20029;-77
2022/04/25 10:24:58;;;;;;;11.18;7.07;;;14.80;58.60;;;;;;5035149;28;20021;-78
2022/04/25 10:27:28;;;;;;;10.38;7.50;;;14.30;59.40;;;;;;5035335;28;20422;-78
2022/04/25 10:29:56;;;;;;;10.95;7.88;;;14.00;61.40;;;;;;5035052;28;20018;-76
2022/04/25 10:32:23;;;;;;;9.05;7.57;;;13.70;63.00;;;;;;5034837;28;20029;-77
2022/04/25 10:34:53;;;;;;;10.60;6.97;;;13.30;63.80;;;;;;5035077;28;20026;-80
2022/04/25 10:37:30;;;;;;;10.30;7.40;;;13.10;64.80;;;;;;5035010;28;20076;-79
2022/04/25 10:39:57;;;;;;;9.52;7.03;;;12.80;66.30;;;;;;5035035;28;20478;-81
2022/04/25 10:45:06;;;;;;;11.65;7.40;;;12.50;67.00;;;;;;5035778;28;20128;-83
2022/04/25 10:47:32;;;;;;;10.77;7.55;;;12.40;69.90;;;;;;5035446;28;20033;-81
2022/04/25 10:49:59;;;;;;;9.40;7.82;;;12.30;72.30;;;;;;5034759;28;20468;-82
2022/04/25 10:52:37;;;;;;;11.50;6.22;;;12.20;72.30;;;;;;5034628;28;20029;-81
2022/04/25 10:55:13;;;;;;;7.10;5.95;;;11.90;73.50;;;;;;5034950;28;20017;-79
2022/04/25 10:58:04;;;;;;;10.55;6.32;;;11.30;78.00;;;;;;5033825;28;20026;-75
2022/04/25 11:00:49;;;;;;;9.13;6.53;;;10.90;79.70;;;;;;5033365;28;20025;-83
2022/04/25 11:03:15;;;;;;;5.77;4.23;;;10.70;83.60;;;;;;5034910;28;20105;-86
2022/04/25 11:05:48;;;;;;;10.30;6.75;;;10.60;83.30;;;;;;5034796;28;20334;-83
2022/04/25 11:08:20;;;;;;;6.38;5.07;;;10.40;84.60;;;;;;5034956;28;20116;-78
2022/04/25 11:10:49;;;;;;;8.95;4.88;;;10.20;84.30;;;;;;5034100;28;20037;-75
2022/04/25 11:13:18;;;;;;;6.68;4.55;;;10.00;84.40;;;;;;5034038;28;20383;-75
2022/04/25 11:15:46;;;;;;;7.32;5.85;;;9.70;84.20;;;;;;5039376;28;20075;-77
2022/04/25 11:18:34;;;;;;;7.60;5.15;;;9.60;85.90;;;;;;5041498;28;20024;-78
2022/04/25 11:21:11;;;;;;;5.22;4.00;;;9.50;85.70;;;;;;5034744;28;20025;-76
2022/04/25 11:23:47;;;;;;;5.20;4.32;;;9.50;85.00;;;;;;5034085;28;20027;-76
2022/04/25 11:26:24;;;;;;;6.97;4.80;;;9.70;84.60;;;;;;5034203;28;20041;-82
2022/04/25 11:31:24;;;;;;;4.88;3.97;;;9.70;84.30;;;;;;5034229;28;20041;-76
2022/04/25 11:33:53;;;;;;;4.43;3.67;;;9.80;83.70;;;;;;5034081;28;20045;-77
2022/04/25 11:36:20;;;;;;;5.03;4.05;;;9.80;82.40;;;;;;5033407;28;20081;-76
2022/04/25 11:41:32;;;;;;;7.78;3.97;;;10.00;82.90;;;;;;5032324;28;20075;-75
2022/04/25 11:43:59;;;;;;;6.10;3.47;;;10.00;82.40;;;;;;5033791;28;20387;-75
2022/04/25 11:46:28;;;;;;;3.70;3.30;;;10.20;82.20;;;;;;5033245;28;20064;-74
2022/04/25 11:48:55;;;;;;;3.67;2.85;;;10.30;81.70;;;;;;5033287;28;20024;-74
2022/04/25 11:51:29;;;;;;;4.47;3.63;;;10.50;81.10;;;;;;5032971;28;20034;-74
2022/04/25 11:53:57;;;;;;;4.22;3.30;;;10.60;81.60;;;;;;5031213;28;20026;-76
2022/04/25 11:56:23;;;;;;;7.18;2.97;;;10.70;80.60;;;;;;5030187;28;20025;-75
2022/04/25 11:58:53;;;;;;;4.38;3.45;;;11.00;79.70;;;;;;5020991;28;20473;-73
2022/04/25 12:01:38;;;;;;;3.35;3.05;;;11.20;78.90;;;;;;5012973;28;20022;-75
2022/04/25 12:04:19;;;;;;;4.15;3.65;;;11.30;77.80;;;;;;5012501;28;20030;-76
2022/04/25 12:06:48;;;;;;;4.55;3.88;;;11.40;76.50;;;;;;5013518;28;20109;-75
2022/04/25 12:17:46;;;;;;;4.82;2.83;;;12.00;75.30;;;;;;5013749;28;20064;-76
2022/04/25 12:20:16;;;;;;;4.82;3.88;;;12.10;75.60;;;;;;5013456;28;20025;-76
2022/04/25 12:22:57;;;;;;;3.25;2.58;;;12.40;75.60;;;;;;5013529;28;20088;-74
2022/04/25 12:25:28;;;;;;;4.45;2.88;;;12.70;73.70;;;;;;5013057;28;20026;-76
2022/04/25 12:28:18;;;;;;;2.40;2.20;;;13.10;73.10;;;;;;5013333;28;20022;-74
2022/04/25 12:30:48;;;;;;;2.20;1.65;;;13.60;72.00;;;;;;5013285;28;20040;-75
2022/04/25 12:33:14;;;;;;;1.90;1.75;;;14.20;70.40;;;;;;5012925;28;20022;-75
2022/04/25 12:35:41;;;;;;;2.65;1.60;;;14.70;68.10;;;;;;5012388;28;20030;-77
2022/04/25 12:38:08;;;;;;;1.73;1.63;;;15.00;63.70;;;;;;5023390;28;20095;-78
2022/04/25 12:40:56;;;;;;;1.83;1.70;;;15.00;60.50;;;;;;5032883;28;20033;-77
2022/04/25 12:43:42;;;;;;;2.42;1.58;;;15.10;60.30;;;;;;5032777;28;20498;-78
2022/04/25 12:46:09;;;;;;;1.95;1.55;;;15.40;58.30;;;;;;5033049;28;20021;-77
2022/04/25 12:49:20;;;;;;;1.70;1.52;;;15.40;58.00;;;;;;5032690;28;20395;-76
2022/04/25 12:51:55;;;;;;;2.25;2.05;;;15.70;57.60;;;;;;5029606;28;20049;-77
2022/04/25 12:54:43;;;;;;;1.70;1.58;;;16.10;57.60;;;;;;5032748;28;20029;-77
2022/04/25 12:57:13;;;;;;;3.05;1.92;;;16.70;57.40;;;;;;5024569;28;20041;-77
2022/04/25 12:59:40;;;;;;;1.80;1.70;;;17.20;56.90;;;;;;5032141;28;20041;-77
2022/04/25 13:02:14;;;;;;;2.22;1.77;;;17.40;53.40;;;;;;5032602;28;20022;-77
2022/04/25 13:04:57;;;;;;;1.95;1.70;;;17.60;52.70;;;;;;5032902;28;20044;-79
2022/04/25 13:07:23;;;;;;;3.13;1.70;;;18.00;52.10;;;;;;5032577;28;20033;-77
2022/04/25 13:09:50;;;;;;;3.22;1.50;;;18.50;50.20;;;;;;5032678;28;20025;-76
2022/04/25 13:12:17;;;;;;;3.40;1.65;;;18.90;48.40;;;;;;5032699;28;20546;-78
2022/04/25 13:14:43;;;;;;;2.08;1.77;;;19.20;49.20;;;;;;5031501;28;20369;-77
2022/04/25 13:17:09;;;;;;;2.00;1.80;;;19.50;48.60;;;;;;5032856;28;20360;-77
2022/04/25 13:19:35;;;;;;;2.33;1.90;;;19.10;48.00;;;;;;5032701;28;20109;-78
2022/04/25 13:22:02;;;;;;;2.60;1.80;;;19.00;47.50;;;;;;5032611;28;20057;-76
2022/04/25 13:24:28;;;;;;;2.30;1.70;;;18.60;45.20;;;;;;5032475;28;20480;-77
2022/04/25 13:26:54;;;;;;;2.63;1.60;;;18.40;46.60;;;;;;5032381;28;20083;-76
2022/04/25 13:29:20;;;;;;;2.45;1.70;;;18.50;46.00;;;;;;5032027;28;20029;-76
2022/04/25 13:31:45;;;;;;;1.90;1.70;;;18.80;45.80;;;;;;5032291;28;20108;-77
2022/04/25 13:34:11;;;;;;;3.30;1.60;;;19.10;46.40;;;;;;5032483;28;20025;-76